ROA640 SVMI-MMMX
Flight info
| Callsign | ROA640 |
|---|---|
| Flight time | 5h 2m |
| Altitude | 24000 |
| Route | ATONO W1 CRO/N0453F320 UM787 LOKUR/N0456F340 UM787 TIK/N0452F360 UM787 MTT UT112 LARLO LARLO4A |
| Aircraft | B738/M-SDE2E3FGHIRWXY/LB1 |
Departure
| Time | 2025-10-04 21:31 |
|---|---|
| Airport | Maiquetía Simón Bolívar International Airport (SVMI) |
Arrival
| Time | 2025-10-05 02:34 |
|---|---|
| Airport | Mexico City Benito Juárez International Airport (MMMX) |
| Time | Latitude | Longitude | Altitude | Speed | Heading |
|---|---|---|---|---|---|
| 2025-10-04 21:10 | 10.59811 | -67.00914 | 238 ft | 0 kts | 178° |
| 2025-10-04 21:22 | 10.59838 | -67.00915 | 239 ft | 2 kts | 178° |
| 2025-10-04 21:24 | 10.59906 | -67.00888 | 238 ft | 2 kts | 256° |
| 2025-10-04 21:24 | 10.59908 | -67.00877 | 238 ft | 0 kts | 265° |
| 2025-10-04 21:26 | 10.59905 | -67.00951 | 236 ft | 11 kts | 268° |
| 2025-10-04 21:26 | 10.59901 | -67.01094 | 238 ft | 10 kts | 268° |
| 2025-10-04 21:27 | 10.59977 | -67.01237 | 240 ft | 9 kts | 354° |
| 2025-10-04 21:28 | 10.60101 | -67.01244 | 240 ft | 9 kts | 358° |
| 2025-10-04 21:28 | 10.60117 | -67.01245 | 239 ft | 0 kts | 358° |
| 2025-10-04 21:29 | 10.60214 | -67.01228 | 236 ft | 6 kts | 57° |
| 2025-10-04 21:29 | 10.60218 | -67.01139 | 183 ft | 32 kts | 88° |
| 2025-10-04 21:30 | 10.60275 | -66.99333 | 171 ft | 176 kts | 88° |
| 2025-10-04 21:30 | 10.60557 | -66.97240 | 1345 ft | 185 kts | 52° |
| 2025-10-04 21:31 | 10.64697 | -66.96709 | 2205 ft | 245 kts | 324° |
| 2025-10-04 21:32 | 10.66121 | -66.99930 | 2931 ft | 272 kts | 281° |
| 2025-10-04 21:32 | 10.66500 | -67.01823 | 3705 ft | 272 kts | 281° |
| 2025-10-04 21:32 | 10.67263 | -67.05629 | 5179 ft | 278 kts | 281° |
| 2025-10-04 21:33 | 10.68997 | -67.09110 | 6542 ft | 285 kts | 309° |
| 2025-10-04 21:33 | 10.71583 | -67.12260 | 7818 ft | 292 kts | 310° |
| 2025-10-04 21:34 | 10.73304 | -67.16017 | 9091 ft | 300 kts | 285° |
| 2025-10-04 21:34 | 10.74389 | -67.20178 | 10245 ft | 311 kts | 285° |
| 2025-10-04 21:35 | 10.76230 | -67.27107 | 10985 ft | 359 kts | 285° |
| 2025-10-04 21:36 | 10.77587 | -67.32061 | 12101 ft | 365 kts | 286° |
| 2025-10-04 21:36 | 10.78976 | -67.37077 | 13191 ft | 372 kts | 286° |
| 2025-10-04 21:36 | 10.79678 | -67.39605 | 13841 ft | 372 kts | 286° |
| 2025-10-04 21:37 | 10.81103 | -67.44727 | 14743 ft | 379 kts | 286° |
| 2025-10-04 21:37 | 10.82544 | -67.49909 | 15734 ft | 384 kts | 286° |
| 2025-10-04 21:38 | 10.84003 | -67.55159 | 16702 ft | 388 kts | 286° |
| 2025-10-04 21:38 | 10.85482 | -67.60485 | 17603 ft | 394 kts | 286° |
| 2025-10-04 21:39 | 10.87727 | -67.68575 | 18834 ft | 401 kts | 286° |
| 2025-10-04 21:40 | 10.89252 | -67.74077 | 19577 ft | 406 kts | 285° |
| 2025-10-04 21:40 | 10.90021 | -67.76852 | 19963 ft | 408 kts | 285° |
| 2025-10-04 21:40 | 10.91570 | -67.82447 | 20693 ft | 413 kts | 285° |
| 2025-10-04 21:41 | 10.92353 | -67.85274 | 21019 ft | 417 kts | 285° |
| 2025-10-04 21:41 | 10.94729 | -67.93867 | 22070 ft | 424 kts | 285° |
| 2025-10-04 21:42 | 10.96331 | -67.99667 | 22763 ft | 428 kts | 285° |
| 2025-10-04 21:42 | 10.97949 | -68.05529 | 23403 ft | 432 kts | 284° |
| 2025-10-04 21:43 | 11.00400 | -68.14417 | 24265 ft | 436 kts | 284° |
| 2025-10-04 21:43 | 11.01210 | -68.17354 | 24534 ft | 438 kts | 284° |
| 2025-10-04 21:44 | 11.04520 | -68.29380 | 25591 ft | 444 kts | 284° |
| 2025-10-04 21:46 | 11.11252 | -68.53900 | 27545 ft | 454 kts | 285° |
| 2025-10-04 21:48 | 11.18095 | -68.78907 | 29363 ft | 462 kts | 285° |
| 2025-10-04 21:50 | 11.24868 | -69.03746 | 31637 ft | 449 kts | 285° |
| 2025-10-04 21:52 | 11.31516 | -69.28211 | 31878 ft | 446 kts | 284° |
| 2025-10-04 21:54 | 11.38096 | -69.52512 | 31886 ft | 445 kts | 284° |
| 2025-10-04 21:56 | 11.44690 | -69.76949 | 31883 ft | 448 kts | 284° |
| 2025-10-04 21:58 | 11.51280 | -70.01461 | 31862 ft | 446 kts | 284° |
| 2025-10-04 22:00 | 11.57800 | -70.25796 | 33121 ft | 445 kts | 285° |
| 2025-10-04 22:02 | 11.64277 | -70.50060 | 33861 ft | 440 kts | 285° |
| 2025-10-04 22:04 | 11.70653 | -70.74030 | 33871 ft | 437 kts | 285° |
| 2025-10-04 22:06 | 11.76237 | -70.95094 | 33867 ft | 443 kts | 285° |
| 2025-10-04 22:08 | 11.83483 | -71.22531 | 33869 ft | 445 kts | 285° |
| 2025-10-04 22:10 | 11.89082 | -71.43806 | 33871 ft | 443 kts | 286° |
| 2025-10-04 22:12 | 11.97300 | -71.70770 | 33874 ft | 443 kts | 288° |
| 2025-10-04 22:14 | 12.03690 | -71.91856 | 33873 ft | 445 kts | 288° |
| 2025-10-04 22:16 | 12.11612 | -72.18072 | 33874 ft | 447 kts | 288° |
| 2025-10-04 22:18 | 12.18008 | -72.39312 | 33877 ft | 446 kts | 288° |
| 2025-10-04 22:20 | 12.26183 | -72.66554 | 33883 ft | 446 kts | 288° |
| 2025-10-04 22:22 | 12.32535 | -72.87794 | 33882 ft | 446 kts | 288° |
| 2025-10-04 22:24 | 12.40685 | -73.15140 | 33885 ft | 447 kts | 288° |
| 2025-10-04 22:26 | 12.47902 | -73.39450 | 33882 ft | 447 kts | 288° |
| 2025-10-04 22:28 | 12.55110 | -73.63815 | 33885 ft | 447 kts | 288° |
| 2025-10-04 22:30 | 12.61396 | -73.85138 | 33885 ft | 447 kts | 288° |
| 2025-10-04 22:32 | 12.68554 | -74.09498 | 33884 ft | 447 kts | 288° |
| 2025-10-04 22:34 | 12.75707 | -74.33932 | 33886 ft | 447 kts | 288° |
| 2025-10-04 22:36 | 12.82821 | -74.58325 | 33891 ft | 447 kts | 288° |
| 2025-10-04 22:38 | 12.89917 | -74.82745 | 33889 ft | 448 kts | 288° |
| 2025-10-04 22:40 | 12.97013 | -75.07257 | 33892 ft | 449 kts | 287° |
| 2025-10-04 22:42 | 13.04122 | -75.31908 | 33902 ft | 452 kts | 287° |
| 2025-10-04 22:44 | 13.11222 | -75.56624 | 33892 ft | 452 kts | 287° |
| 2025-10-04 22:47 | 13.20060 | -75.87527 | 33903 ft | 450 kts | 286° |
| 2025-10-04 22:48 | 13.26195 | -76.09066 | 33889 ft | 450 kts | 286° |
| 2025-10-04 22:51 | 13.34101 | -76.36934 | 33896 ft | 453 kts | 286° |
| 2025-10-04 22:52 | 13.40203 | -76.58531 | 33905 ft | 453 kts | 285° |
| 2025-10-04 22:54 | 13.47292 | -76.83713 | 33884 ft | 459 kts | 285° |
| 2025-10-04 22:56 | 13.54318 | -77.08779 | 33884 ft | 454 kts | 285° |
| 2025-10-04 22:58 | 13.61238 | -77.33571 | 33886 ft | 451 kts | 285° |
| 2025-10-04 23:00 | 13.67753 | -77.57383 | 33879 ft | 452 kts | 284° |
| 2025-10-04 23:02 | 13.73640 | -77.79203 | 33880 ft | 454 kts | 284° |
| 2025-10-04 23:04 | 13.81224 | -78.07422 | 33879 ft | 455 kts | 285° |
| 2025-10-04 23:06 | 13.87091 | -78.29344 | 33889 ft | 454 kts | 285° |
| 2025-10-04 23:08 | 13.94589 | -78.57487 | 33880 ft | 452 kts | 285° |
| 2025-10-04 23:10 | 14.00358 | -78.79236 | 33887 ft | 450 kts | 286° |
| 2025-10-04 23:12 | 14.07744 | -79.07205 | 33888 ft | 450 kts | 286° |
| 2025-10-04 23:14 | 14.14289 | -79.32117 | 33898 ft | 452 kts | 286° |
| 2025-10-04 23:16 | 14.20808 | -79.57135 | 33884 ft | 453 kts | 285° |
| 2025-10-04 23:18 | 14.26509 | -79.79102 | 33881 ft | 453 kts | 285° |
| 2025-10-04 23:20 | 14.33789 | -80.07283 | 33883 ft | 452 kts | 285° |
| 2025-10-04 23:22 | 14.39439 | -80.29254 | 33883 ft | 453 kts | 285° |
| 2025-10-04 23:24 | 14.46692 | -80.57596 | 33881 ft | 455 kts | 285° |
| 2025-10-04 23:26 | 14.51862 | -80.77893 | 33881 ft | 457 kts | 285° |
| 2025-10-04 23:28 | 14.59032 | -81.06164 | 33890 ft | 456 kts | 284° |
| 2025-10-04 23:30 | 14.63453 | -81.23674 | 33886 ft | 455 kts | 284° |
| 2025-10-04 23:32 | 14.67386 | -81.38448 | 33870 ft | 453 kts | 283° |
| 2025-10-04 23:34 | 14.70189 | -81.50473 | 33904 ft | 451 kts | 284° |
| 2025-10-04 23:36 | 14.75994 | -81.73404 | 33893 ft | 450 kts | 282° |
| 2025-10-04 23:38 | 14.81001 | -81.93987 | 33909 ft | 457 kts | 285° |
| 2025-10-04 23:40 | 14.85819 | -82.13376 | 33884 ft | 460 kts | 284° |
| 2025-10-04 23:42 | 14.88711 | -82.25095 | 33890 ft | 459 kts | 284° |
| 2025-10-04 23:44 | 14.89465 | -82.28162 | 33891 ft | 458 kts | 284° |
| 2025-10-04 23:46 | 14.90835 | -82.33767 | 33891 ft | 456 kts | 284° |
| 2025-10-04 23:48 | 14.92360 | -82.39912 | 33885 ft | 455 kts | 284° |
| 2025-10-04 23:50 | 14.94029 | -82.46664 | 33891 ft | 453 kts | 284° |
| 2025-10-04 23:52 | 14.96159 | -82.55327 | 33885 ft | 451 kts | 284° |
| 2025-10-04 23:54 | 15.01022 | -82.75160 | 33892 ft | 449 kts | 284° |
| 2025-10-04 23:56 | 15.07933 | -83.03484 | 33891 ft | 455 kts | 284° |
| 2025-10-04 23:58 | 15.13333 | -83.25728 | 33898 ft | 455 kts | 283° |
| 2025-10-05 00:00 | 15.20209 | -83.54202 | 33902 ft | 451 kts | 283° |
| 2025-10-05 00:02 | 15.25494 | -83.76203 | 33902 ft | 450 kts | 283° |
| 2025-10-05 00:04 | 15.32612 | -84.01136 | 33889 ft | 452 kts | 285° |
| 2025-10-05 00:06 | 15.39782 | -84.26086 | 33890 ft | 452 kts | 285° |
| 2025-10-05 00:08 | 15.46911 | -84.51005 | 33887 ft | 449 kts | 285° |
| 2025-10-05 00:10 | 15.48426 | -84.56552 | 33837 ft | 449 kts | 281° |
| 2025-10-05 00:12 | 15.55200 | -84.80098 | 33898 ft | 446 kts | 285° |
| 2025-10-05 00:14 | 15.58276 | -84.91192 | 33900 ft | 446 kts | 285° |
| 2025-10-05 00:16 | 15.62463 | -85.05893 | 33900 ft | 448 kts | 285° |
| 2025-10-05 00:18 | 15.68705 | -85.28100 | 33907 ft | 450 kts | 285° |
| 2025-10-05 00:20 | 15.75180 | -85.51228 | 33903 ft | 450 kts | 285° |
| 2025-10-05 00:23 | 15.82571 | -85.77776 | 33906 ft | 444 kts | 286° |
| 2025-10-05 00:24 | 15.88520 | -85.99231 | 33899 ft | 440 kts | 286° |
| 2025-10-05 00:26 | 15.94431 | -86.20642 | 33886 ft | 441 kts | 285° |
| 2025-10-05 00:28 | 16.02020 | -86.48260 | 33876 ft | 444 kts | 285° |
| 2025-10-05 00:30 | 16.07948 | -86.69939 | 33876 ft | 445 kts | 285° |
| 2025-10-05 00:32 | 16.15498 | -86.97684 | 33883 ft | 444 kts | 285° |
| 2025-10-05 00:34 | 16.21339 | -87.19257 | 33886 ft | 442 kts | 285° |
| 2025-10-05 00:36 | 16.27961 | -87.43826 | 33890 ft | 440 kts | 285° |
| 2025-10-05 00:38 | 16.35088 | -87.70403 | 33891 ft | 440 kts | 284° |
| 2025-10-05 00:40 | 16.39569 | -87.87190 | 33889 ft | 440 kts | 284° |
| 2025-10-05 00:42 | 16.45367 | -88.08993 | 33875 ft | 440 kts | 284° |
| 2025-10-05 00:44 | 16.50092 | -88.26901 | 33859 ft | 439 kts | 284° |
| 2025-10-05 00:46 | 16.54577 | -88.43833 | 33875 ft | 439 kts | 284° |
| 2025-10-05 00:48 | 16.61638 | -88.70717 | 33908 ft | 438 kts | 285° |
| 2025-10-05 00:50 | 16.67181 | -88.91927 | 33923 ft | 438 kts | 284° |
| 2025-10-05 00:52 | 16.73621 | -89.16686 | 33926 ft | 437 kts | 284° |
| 2025-10-05 00:54 | 16.78558 | -89.35757 | 33924 ft | 436 kts | 284° |
| 2025-10-05 00:56 | 16.85443 | -89.62489 | 33917 ft | 435 kts | 284° |
| 2025-10-05 00:58 | 16.90904 | -89.83800 | 33925 ft | 436 kts | 284° |
| 2025-10-05 01:00 | 16.98036 | -90.11039 | 33915 ft | 437 kts | 284° |
| 2025-10-05 01:02 | 17.04443 | -90.35542 | 33905 ft | 438 kts | 284° |
| 2025-10-05 01:04 | 17.10779 | -90.59904 | 33904 ft | 438 kts | 284° |
| 2025-10-05 01:06 | 17.16340 | -90.81391 | 33909 ft | 437 kts | 284° |
| 2025-10-05 01:08 | 17.23447 | -91.08999 | 33909 ft | 436 kts | 284° |
| 2025-10-05 01:10 | 17.28959 | -91.30423 | 33912 ft | 436 kts | 284° |
| 2025-10-05 01:12 | 17.35256 | -91.54933 | 33910 ft | 435 kts | 284° |
| 2025-10-05 01:14 | 17.41489 | -91.79334 | 33884 ft | 433 kts | 284° |
| 2025-10-05 01:16 | 17.48447 | -92.06731 | 33840 ft | 432 kts | 284° |
| 2025-10-05 01:18 | 17.54576 | -92.31004 | 33888 ft | 431 kts | 284° |
| 2025-10-05 01:20 | 17.60507 | -92.54619 | 33910 ft | 431 kts | 283° |
| 2025-10-05 01:22 | 17.65806 | -92.75828 | 33900 ft | 430 kts | 283° |
| 2025-10-05 01:24 | 17.72585 | -93.03116 | 33903 ft | 429 kts | 284° |
| 2025-10-05 01:26 | 17.77480 | -93.22925 | 33905 ft | 428 kts | 284° |
| 2025-10-05 01:28 | 17.84111 | -93.49907 | 33892 ft | 426 kts | 284° |
| 2025-10-05 01:30 | 17.89937 | -93.73756 | 33906 ft | 425 kts | 284° |
| 2025-10-05 01:32 | 17.95764 | -93.97743 | 33891 ft | 424 kts | 284° |
| 2025-10-05 01:34 | 18.00836 | -94.18735 | 33895 ft | 423 kts | 284° |
| 2025-10-05 01:36 | 18.06589 | -94.42677 | 33897 ft | 422 kts | 284° |
| 2025-10-05 01:38 | 18.11815 | -94.66709 | 33910 ft | 421 kts | 280° |
| 2025-10-05 01:40 | 18.16340 | -94.93913 | 33924 ft | 419 kts | 280° |
| 2025-10-05 01:42 | 18.20381 | -95.18041 | 33930 ft | 418 kts | 279° |
| 2025-10-05 01:44 | 18.24375 | -95.42104 | 33906 ft | 417 kts | 279° |
| 2025-10-05 01:46 | 18.27810 | -95.63108 | 33922 ft | 418 kts | 279° |
| 2025-10-05 01:48 | 18.32144 | -95.89780 | 33914 ft | 420 kts | 279° |
| 2025-10-05 01:50 | 18.35597 | -96.11016 | 33918 ft | 421 kts | 279° |
| 2025-10-05 01:52 | 18.40004 | -96.38361 | 33905 ft | 419 kts | 279° |
| 2025-10-05 01:54 | 18.43388 | -96.59534 | 33906 ft | 419 kts | 279° |
| 2025-10-05 01:56 | 18.47723 | -96.86895 | 33952 ft | 423 kts | 279° |
| 2025-10-05 01:58 | 18.51086 | -97.08300 | 33963 ft | 423 kts | 279° |
| 2025-10-05 02:00 | 18.55371 | -97.35810 | 33974 ft | 423 kts | 279° |
| 2025-10-05 02:02 | 18.58674 | -97.57206 | 33943 ft | 422 kts | 279° |
| 2025-10-05 02:04 | 18.63119 | -97.83943 | 33483 ft | 399 kts | 281° |
| 2025-10-05 02:06 | 18.67030 | -98.06398 | 30396 ft | 383 kts | 280° |
| 2025-10-05 02:08 | 18.70828 | -98.27995 | 27299 ft | 365 kts | 286° |
| 2025-10-05 02:10 | 18.85869 | -98.34476 | 24877 ft | 358 kts | 355° |
| 2025-10-05 02:11 | 18.93339 | -98.35064 | 23878 ft | 357 kts | 354° |
| 2025-10-05 02:11 | 18.98250 | -98.35481 | 23154 ft | 354 kts | 354° |
| 2025-10-05 02:12 | 19.03139 | -98.35901 | 22478 ft | 350 kts | 354° |
| 2025-10-05 02:12 | 19.07967 | -98.36317 | 21817 ft | 346 kts | 354° |
| 2025-10-05 02:13 | 19.12745 | -98.36728 | 21137 ft | 342 kts | 354° |
| 2025-10-05 02:13 | 19.14313 | -98.36864 | 20909 ft | 341 kts | 354° |
| 2025-10-05 02:14 | 19.19006 | -98.37407 | 20234 ft | 338 kts | 350° |
| 2025-10-05 02:14 | 19.23637 | -98.38181 | 19557 ft | 335 kts | 350° |
| 2025-10-05 02:15 | 19.30533 | -98.39313 | 18503 ft | 333 kts | 350° |
| 2025-10-05 02:15 | 19.35136 | -98.40051 | 17486 ft | 338 kts | 351° |
| 2025-10-05 02:16 | 19.39767 | -98.40789 | 16753 ft | 334 kts | 351° |
| 2025-10-05 02:16 | 19.44336 | -98.41518 | 16033 ft | 330 kts | 351° |
| 2025-10-05 02:17 | 19.48859 | -98.42242 | 15341 ft | 327 kts | 351° |
| 2025-10-05 02:17 | 19.51102 | -98.42600 | 14998 ft | 325 kts | 351° |
| 2025-10-05 02:18 | 19.55490 | -98.43301 | 14824 ft | 313 kts | 351° |
| 2025-10-05 02:18 | 19.59732 | -98.43979 | 14812 ft | 302 kts | 351° |
| 2025-10-05 02:19 | 19.65675 | -98.45444 | 14835 ft | 293 kts | 345° |
| 2025-10-05 02:19 | 19.69640 | -98.46547 | 14835 ft | 296 kts | 345° |
| 2025-10-05 02:20 | 19.73623 | -98.47705 | 14829 ft | 297 kts | 335° |
| 2025-10-05 02:20 | 19.76968 | -98.50254 | 14831 ft | 297 kts | 321° |
| 2025-10-05 02:21 | 19.80231 | -98.52937 | 14824 ft | 296 kts | 322° |
| 2025-10-05 02:21 | 19.81870 | -98.54266 | 14828 ft | 296 kts | 322° |
| 2025-10-05 02:22 | 19.84864 | -98.57194 | 14826 ft | 292 kts | 300° |
| 2025-10-05 02:22 | 19.86096 | -98.61154 | 14827 ft | 281 kts | 259° |
| 2025-10-05 02:23 | 19.82378 | -98.65635 | 13809 ft | 285 kts | 210° |
| 2025-10-05 02:23 | 19.78912 | -98.67649 | 13270 ft | 281 kts | 208° |
| 2025-10-05 02:24 | 19.75528 | -98.69618 | 12777 ft | 277 kts | 208° |
| 2025-10-05 02:24 | 19.72211 | -98.71573 | 12577 ft | 270 kts | 209° |
| 2025-10-05 02:25 | 19.70604 | -98.72525 | 12512 ft | 258 kts | 209° |
| 2025-10-05 02:25 | 19.67664 | -98.74270 | 12322 ft | 224 kts | 209° |
| 2025-10-05 02:26 | 19.65130 | -98.75775 | 12165 ft | 200 kts | 209° |
| 2025-10-05 02:27 | 19.60192 | -98.78706 | 11899 ft | 205 kts | 209° |
| 2025-10-05 02:27 | 19.58318 | -98.80912 | 11892 ft | 206 kts | 236° |
| 2025-10-05 02:27 | 19.57531 | -98.82216 | 11524 ft | 218 kts | 237° |
| 2025-10-05 02:28 | 19.56053 | -98.84793 | 11026 ft | 188 kts | 238° |
| 2025-10-05 02:28 | 19.54776 | -98.87060 | 10653 ft | 177 kts | 238° |
| 2025-10-05 02:29 | 19.53503 | -98.89327 | 10323 ft | 179 kts | 238° |
| 2025-10-05 02:29 | 19.52234 | -98.91587 | 9947 ft | 176 kts | 238° |
| 2025-10-05 02:30 | 19.50988 | -98.93807 | 9583 ft | 175 kts | 238° |
| 2025-10-05 02:30 | 19.49736 | -98.96039 | 9286 ft | 176 kts | 238° |
| 2025-10-05 02:31 | 19.48486 | -98.98267 | 8943 ft | 176 kts | 238° |
| 2025-10-05 02:31 | 19.47265 | -99.00445 | 8433 ft | 169 kts | 238° |
| 2025-10-05 02:32 | 19.46046 | -99.02620 | 7980 ft | 174 kts | 238° |
| 2025-10-05 02:32 | 19.44821 | -99.04804 | 7571 ft | 171 kts | 239° |
| 2025-10-05 02:33 | 19.43785 | -99.06654 | 7463 ft | 96 kts | 239° |
| 2025-10-05 02:33 | 19.43479 | -99.07196 | 7462 ft | 20 kts | 239° |
| 2025-10-05 02:34 | 19.43408 | -99.07320 | 7462 ft | 19 kts | 238° |
| 2025-10-05 02:34 | 19.43271 | -99.07555 | 7462 ft | 18 kts | 230° |
| 2025-10-05 02:35 | 19.43040 | -99.07728 | 7473 ft | 6 kts | 209° |
| 2025-10-05 02:35 | 19.42965 | -99.07773 | 7479 ft | 6 kts | 210° |
| 2025-10-05 02:36 | 19.42893 | -99.07817 | 7483 ft | 6 kts | 209° |
| 2025-10-05 02:36 | 19.42802 | -99.07869 | 7484 ft | 9 kts | 206° |
| 2025-10-05 02:37 | 19.42682 | -99.07885 | 7486 ft | 10 kts | 232° |
| 2025-10-05 02:37 | 19.42643 | -99.07952 | 7487 ft | 12 kts | 233° |
| 2025-10-05 02:38 | 19.42536 | -99.07963 | 7488 ft | 6 kts | 228° |
| 2025-10-05 02:38 | 19.42466 | -99.08055 | 7486 ft | 8 kts | 190° |
| 2025-10-05 02:39 | 19.42343 | -99.07966 | 7488 ft | 6 kts | 130° |
| 2025-10-05 02:39 | 19.42357 | -99.07895 | 7489 ft | 4 kts | 60° |
| 2025-10-05 02:40 | 19.42362 | -99.07887 | 7486 ft | 0 kts | 60° |